Terminal Aerodrome Forecast
Issued by NWS Wilmington, OH

Current Version | Previous Version | Graphics & Text | Print | Product List | Glossary On
Versions: 1 2 3 4 5 6 7 8 9 10 11 12 13 14 15 16 17 18 19 20 21 22 23 24
000
FTUS41 KILN 011000 AAB
TAFILN
TAF AMD
KILN 011056Z 0111/0206 30005KT 1/4SM FG VV001
     FM011300 30005KT 3SM BR SCT001 SCT040 BKN250
     FM011500 32007KT P6SM SCT040 BKN250
     FM020000 01004KT P6SM SCT050=

USA.gov is the U.S. government's official web portal to all federal, state and local government web resources and services.